sensor_id;sensor_type;location;lat;lon;timestamp;temperature;humidity
11264;DHT22;5689;48.798;9.070;2022-10-24T00:00:47;18.30;99.90
11264;DHT22;5689;48.798;9.070;2022-10-24T00:03:15;18.30;99.90
11264;DHT22;5689;48.798;9.070;2022-10-24T00:05:46;18.30;99.90
11264;DHT22;5689;48.798;9.070;2022-10-24T00:08:15;18.30;99.90
11264;DHT22;5689;48.798;9.070;2022-10-24T00:10:45;18.20;99.90
11264;DHT22;5689;48.798;9.070;2022-10-24T00:13:14;18.20;99.90
11264;DHT22;5689;48.798;9.070;2022-10-24T00:15:43;18.20;99.90
11264;DHT22;5689;48.798;9.070;2022-10-24T00:18:12;18.10;99.90
11264;DHT22;5689;48.798;9.070;2022-10-24T00:20:40;18.30;99.90
11264;DHT22;5689;48.798;9.070;2022-10-24T00:23:15;18.10;99.90
11264;DHT22;5689;48.798;9.070;2022-10-24T00:25:43;18.10;99.90
11264;DHT22;5689;48.798;9.070;2022-10-24T00:28:11;18.10;99.90
11264;DHT22;5689;48.798;9.070;2022-10-24T00:30:39;18.10;99.90
11264;DHT22;5689;48.798;9.070;2022-10-24T00:33:07;18.10;99.90
11264;DHT22;5689;48.798;9.070;2022-10-24T00:35:35;18.00;99.90
11264;DHT22;5689;48.798;9.070;2022-10-24T00:38:03;17.90;99.90
11264;DHT22;5689;48.798;9.070;2022-10-24T00:40:32;18.00;99.90
11264;DHT22;5689;48.798;9.070;2022-10-24T00:43:00;18.00;99.90
11264;DHT22;5689;48.798;9.070;2022-10-24T00:45:41;17.90;99.90
11264;DHT22;5689;48.798;9.070;2022-10-24T00:48:13;17.90;99.90
11264;DHT22;5689;48.798;9.070;2022-10-24T00:50:41;18.00;99.90
11264;DHT22;5689;48.798;9.070;2022-10-24T00:53:10;18.00;99.90
11264;DHT22;5689;48.798;9.070;2022-10-24T00:55:40;18.00;99.90
11264;DHT22;5689;48.798;9.070;2022-10-24T00:58:08;18.00;99.90
11264;DHT22;5689;48.798;9.070;2022-10-24T01:00:37;18.00;99.90
11264;DHT22;5689;48.798;9.070;2022-10-24T01:03:05;18.00;99.90
11264;DHT22;5689;48.798;9.070;2022-10-24T01:05:42;18.00;99.90
11264;DHT22;5689;48.798;9.070;2022-10-24T01:08:21;18.00;99.90
11264;DHT22;5689;48.798;9.070;2022-10-24T01:10:58;18.10;99.90
11264;DHT22;5689;48.798;9.070;2022-10-24T01:13:35;18.00;99.90
11264;DHT22;5689;48.798;9.070;2022-10-24T01:16:11;18.00;99.90
11264;DHT22;5689;48.798;9.070;2022-10-24T01:18:46;18.00;99.90
11264;DHT22;5689;48.798;9.070;2022-10-24T01:21:20;18.00;99.90
11264;DHT22;5689;48.798;9.070;2022-10-24T01:24:27;18.00;99.90
11264;DHT22;5689;48.798;9.070;2022-10-24T01:30:03;18.00;99.90
11264;DHT22;5689;48.798;9.070;2022-10-24T01:32:43;17.90;99.90
11264;DHT22;5689;48.798;9.070;2022-10-24T01:35:27;17.90;99.90
11264;DHT22;5689;48.798;9.070;2022-10-24T01:38:08;17.80;99.90
11264;DHT22;5689;48.798;9.070;2022-10-24T01:40:43;17.80;99.90
11264;DHT22;5689;48.798;9.070;2022-10-24T01:43:14;17.80;99.90
11264;DHT22;5689;48.798;9.070;2022-10-24T01:45:47;17.90;99.90
11264;DHT22;5689;48.798;9.070;2022-10-24T01:48:20;17.90;99.90
11264;DHT22;5689;48.798;9.070;2022-10-24T01:50:50;17.90;99.90
11264;DHT22;5689;48.798;9.070;2022-10-24T01:53:22;17.90;99.90
11264;DHT22;5689;48.798;9.070;2022-10-24T01:55:52;17.90;99.90
11264;DHT22;5689;48.798;9.070;2022-10-24T01:58:21;17.90;99.90
11264;DHT22;5689;48.798;9.070;2022-10-24T02:00:54;18.00;99.90
11264;DHT22;5689;48.798;9.070;2022-10-24T02:03:28;18.00;99.90
11264;DHT22;5689;48.798;9.070;2022-10-24T02:06:00;18.00;99.90
11264;DHT22;5689;48.798;9.070;2022-10-24T02:08:34;18.00;99.90
11264;DHT22;5689;48.798;9.070;2022-10-24T02:11:06;17.90;99.90
11264;DHT22;5689;48.798;9.070;2022-10-24T02:13:39;17.90;99.90
11264;DHT22;5689;48.798;9.070;2022-10-24T02:16:09;17.90;99.90
11264;DHT22;5689;48.798;9.070;2022-10-24T02:18:38;17.90;99.90
11264;DHT22;5689;48.798;9.070;2022-10-24T02:21:15;17.90;99.90
11264;DHT22;5689;48.798;9.070;2022-10-24T02:23:49;17.90;99.90
11264;DHT22;5689;48.798;9.070;2022-10-24T02:26:25;17.90;99.90
11264;DHT22;5689;48.798;9.070;2022-10-24T02:29:00;17.80;99.90
11264;DHT22;5689;48.798;9.070;2022-10-24T02:31:34;17.80;99.90
11264;DHT22;5689;48.798;9.070;2022-10-24T02:34:05;17.80;99.90
11264;DHT22;5689;48.798;9.070;2022-10-24T02:36:35;17.80;99.90
11264;DHT22;5689;48.798;9.070;2022-10-24T02:39:06;17.80;99.90
11264;DHT22;5689;48.798;9.070;2022-10-24T02:41:38;17.70;99.90
11264;DHT22;5689;48.798;9.070;2022-10-24T02:44:08;17.80;99.90
11264;DHT22;5689;48.798;9.070;2022-10-24T02:46:39;17.80;99.90
11264;DHT22;5689;48.798;9.070;2022-10-24T02:49:09;17.80;99.90
11264;DHT22;5689;48.798;9.070;2022-10-24T02:51:39;17.80;99.90
11264;DHT22;5689;48.798;9.070;2022-10-24T02:54:09;17.80;99.90
11264;DHT22;5689;48.798;9.070;2022-10-24T02:56:39;17.80;99.90
11264;DHT22;5689;48.798;9.070;2022-10-24T02:59:08;17.80;99.90
11264;DHT22;5689;48.798;9.070;2022-10-24T03:01:36;17.80;99.90
11264;DHT22;5689;48.798;9.070;2022-10-24T03:04:05;17.90;99.90
11264;DHT22;5689;48.798;9.070;2022-10-24T03:06:33;17.80;99.90
11264;DHT22;5689;48.798;9.070;2022-10-24T03:09:01;17.80;99.90
11264;DHT22;5689;48.798;9.070;2022-10-24T03:11:30;17.90;99.90
11264;DHT22;5689;48.798;9.070;2022-10-24T03:13:57;17.80;99.90
11264;DHT22;5689;48.798;9.070;2022-10-24T03:16:26;17.80;99.90
11264;DHT22;5689;48.798;9.070;2022-10-24T03:18:54;17.80;99.90
11264;DHT22;5689;48.798;9.070;2022-10-24T03:21:23;17.80;99.90
11264;DHT22;5689;48.798;9.070;2022-10-24T03:23:51;17.80;99.90
11264;DHT22;5689;48.798;9.070;2022-10-24T03:26:19;17.80;99.90
11264;DHT22;5689;48.798;9.070;2022-10-24T03:28:47;17.80;99.90
11264;DHT22;5689;48.798;9.070;2022-10-24T03:31:15;17.80;99.90
11264;DHT22;5689;48.798;9.070;2022-10-24T03:33:43;17.80;99.90
11264;DHT22;5689;48.798;9.070;2022-10-24T03:36:11;17.80;99.90
11264;DHT22;5689;48.798;9.070;2022-10-24T03:38:41;17.80;99.90
11264;DHT22;5689;48.798;9.070;2022-10-24T03:41:09;17.70;99.90
11264;DHT22;5689;48.798;9.070;2022-10-24T03:43:37;17.80;99.90
11264;DHT22;5689;48.798;9.070;2022-10-24T03:46:05;17.70;99.90
11264;DHT22;5689;48.798;9.070;2022-10-24T03:48:33;17.70;99.90
11264;DHT22;5689;48.798;9.070;2022-10-24T03:51:01;17.70;99.90
11264;DHT22;5689;48.798;9.070;2022-10-24T03:53:29;17.70;99.90
11264;DHT22;5689;48.798;9.070;2022-10-24T03:55:58;17.80;99.90
11264;DHT22;5689;48.798;9.070;2022-10-24T03:58:26;17.80;99.90
11264;DHT22;5689;48.798;9.070;2022-10-24T04:00:54;17.70;99.90
11264;DHT22;5689;48.798;9.070;2022-10-24T04:03:25;17.80;99.90
11264;DHT22;5689;48.798;9.070;2022-10-24T04:05:53;17.70;99.90
11264;DHT22;5689;48.798;9.070;2022-10-24T04:08:21;17.70;99.90
11264;DHT22;5689;48.798;9.070;2022-10-24T04:10:49;17.70;99.90
11264;DHT22;5689;48.798;9.070;2022-10-24T04:13:20;17.70;99.90
11264;DHT22;5689;48.798;9.070;2022-10-24T04:15:48;17.80;99.90
11264;DHT22;5689;48.798;9.070;2022-10-24T04:18:16;17.70;99.90
11264;DHT22;5689;48.798;9.070;2022-10-24T04:20:44;17.70;99.90
11264;DHT22;5689;48.798;9.070;2022-10-24T04:23:12;17.70;99.90
11264;DHT22;5689;48.798;9.070;2022-10-24T04:25:40;17.70;99.90
11264;DHT22;5689;48.798;9.070;2022-10-24T04:28:08;17.70;99.90
11264;DHT22;5689;48.798;9.070;2022-10-24T04:30:38;17.60;99.90
11264;DHT22;5689;48.798;9.070;2022-10-24T04:33:06;17.70;99.90
11264;DHT22;5689;48.798;9.070;2022-10-24T04:35:34;17.80;99.90
11264;DHT22;5689;48.798;9.070;2022-10-24T04:38:02;17.70;99.90
11264;DHT22;5689;48.798;9.070;2022-10-24T04:40:30;17.70;99.90
11264;DHT22;5689;48.798;9.070;2022-10-24T04:42:58;17.70;99.90
11264;DHT22;5689;48.798;9.070;2022-10-24T04:45:26;17.60;99.90
11264;DHT22;5689;48.798;9.070;2022-10-24T04:47:55;17.70;99.90
11264;DHT22;5689;48.798;9.070;2022-10-24T04:50:23;17.70;99.90
11264;DHT22;5689;48.798;9.070;2022-10-24T04:52:51;17.70;99.90
11264;DHT22;5689;48.798;9.070;2022-10-24T04:55:19;17.70;99.90
11264;DHT22;5689;48.798;9.070;2022-10-24T04:57:47;17.80;99.90
11264;DHT22;5689;48.798;9.070;2022-10-24T05:00:15;17.80;99.90
11264;DHT22;5689;48.798;9.070;2022-10-24T05:02:43;17.80;99.90
11264;DHT22;5689;48.798;9.070;2022-10-24T05:05:13;17.80;99.90
11264;DHT22;5689;48.798;9.070;2022-10-24T05:07:43;17.80;99.90
11264;DHT22;5689;48.798;9.070;2022-10-24T05:10:11;17.70;99.90
11264;DHT22;5689;48.798;9.070;2022-10-24T05:12:39;17.80;99.90
11264;DHT22;5689;48.798;9.070;2022-10-24T05:15:08;17.70;99.90
11264;DHT22;5689;48.798;9.070;2022-10-24T05:17:36;17.70;99.90
11264;DHT22;5689;48.798;9.070;2022-10-24T05:20:05;17.70;99.90
11264;DHT22;5689;48.798;9.070;2022-10-24T05:22:35;17.80;99.90
11264;DHT22;5689;48.798;9.070;2022-10-24T05:25:04;17.80;99.90
11264;DHT22;5689;48.798;9.070;2022-10-24T05:27:32;17.80;99.90
11264;DHT22;5689;48.798;9.070;2022-10-24T05:30:00;17.80;99.90
11264;DHT22;5689;48.798;9.070;2022-10-24T05:32:28;17.80;99.90
11264;DHT22;5689;48.798;9.070;2022-10-24T05:34:57;17.60;99.90
11264;DHT22;5689;48.798;9.070;2022-10-24T05:37:25;17.30;99.90
11264;DHT22;5689;48.798;9.070;2022-10-24T05:39:54;17.00;99.90
11264;DHT22;5689;48.798;9.070;2022-10-24T05:42:22;16.60;99.90
11264;DHT22;5689;48.798;9.070;2022-10-24T05:44:50;16.30;99.90
11264;DHT22;5689;48.798;9.070;2022-10-24T05:47:18;16.00;99.90
11264;DHT22;5689;48.798;9.070;2022-10-24T05:49:46;16.00;99.90
11264;DHT22;5689;48.798;9.070;2022-10-24T05:52:14;15.90;99.90
11264;DHT22;5689;48.798;9.070;2022-10-24T05:54:42;15.80;99.90
11264;DHT22;5689;48.798;9.070;2022-10-24T05:57:15;15.80;99.90
11264;DHT22;5689;48.798;9.070;2022-10-24T05:59:43;15.70;99.90
11264;DHT22;5689;48.798;9.070;2022-10-24T06:02:16;15.70;99.90
11264;DHT22;5689;48.798;9.070;2022-10-24T06:04:45;15.60;99.90
11264;DHT22;5689;48.798;9.070;2022-10-24T06:07:13;15.60;99.90
11264;DHT22;5689;48.798;9.070;2022-10-24T06:09:42;15.50;99.90
11264;DHT22;5689;48.798;9.070;2022-10-24T06:12:11;15.40;99.90
11264;DHT22;5689;48.798;9.070;2022-10-24T06:14:40;15.30;99.90
11264;DHT22;5689;48.798;9.070;2022-10-24T06:17:08;15.30;99.90
11264;DHT22;5689;48.798;9.070;2022-10-24T06:19:37;15.30;99.90
11264;DHT22;5689;48.798;9.070;2022-10-24T06:22:06;15.20;99.90
11264;DHT22;5689;48.798;9.070;2022-10-24T06:24:35;15.20;99.90
11264;DHT22;5689;48.798;9.070;2022-10-24T06:27:04;15.20;99.90
11264;DHT22;5689;48.798;9.070;2022-10-24T06:29:33;15.20;99.90
11264;DHT22;5689;48.798;9.070;2022-10-24T06:32:02;15.20;99.90
11264;DHT22;5689;48.798;9.070;2022-10-24T06:34:30;15.20;99.90
11264;DHT22;5689;48.798;9.070;2022-10-24T06:36:58;15.20;99.90
11264;DHT22;5689;48.798;9.070;2022-10-24T06:39:26;15.20;99.90
11264;DHT22;5689;48.798;9.070;2022-10-24T06:41:54;15.20;99.90
11264;DHT22;5689;48.798;9.070;2022-10-24T06:44:25;15.30;99.90
11264;DHT22;5689;48.798;9.070;2022-10-24T06:46:53;15.40;99.90
11264;DHT22;5689;48.798;9.070;2022-10-24T06:49:22;15.50;99.90
11264;DHT22;5689;48.798;9.070;2022-10-24T06:51:50;15.60;99.90
11264;DHT22;5689;48.798;9.070;2022-10-24T06:54:18;15.60;99.90
11264;DHT22;5689;48.798;9.070;2022-10-24T06:56:46;15.80;99.90
11264;DHT22;5689;48.798;9.070;2022-10-24T06:59:16;15.80;99.90
11264;DHT22;5689;48.798;9.070;2022-10-24T07:01:44;15.70;99.90
11264;DHT22;5689;48.798;9.070;2022-10-24T07:04:13;14.70;99.90
11264;DHT22;5689;48.798;9.070;2022-10-24T07:06:43;14.30;99.90
11264;DHT22;5689;48.798;9.070;2022-10-24T07:09:11;14.20;99.90
11264;DHT22;5689;48.798;9.070;2022-10-24T07:11:40;14.20;99.90
11264;DHT22;5689;48.798;9.070;2022-10-24T07:14:08;14.10;99.90
11264;DHT22;5689;48.798;9.070;2022-10-24T07:16:36;14.00;99.90
11264;DHT22;5689;48.798;9.070;2022-10-24T07:19:05;14.00;99.90
11264;DHT22;5689;48.798;9.070;2022-10-24T07:21:33;14.10;99.90
11264;DHT22;5689;48.798;9.070;2022-10-24T07:24:03;14.10;99.90
11264;DHT22;5689;48.798;9.070;2022-10-24T07:26:32;14.10;99.90
11264;DHT22;5689;48.798;9.070;2022-10-24T07:29:00;14.10;99.90
11264;DHT22;5689;48.798;9.070;2022-10-24T07:31:34;14.20;99.90
11264;DHT22;5689;48.798;9.070;2022-10-24T07:34:05;14.20;99.90
11264;DHT22;5689;48.798;9.070;2022-10-24T07:36:33;14.30;99.90
11264;DHT22;5689;48.798;9.070;2022-10-24T07:39:05;14.30;99.90
11264;DHT22;5689;48.798;9.070;2022-10-24T07:41:36;14.30;99.90
11264;DHT22;5689;48.798;9.070;2022-10-24T07:44:06;14.30;99.90
11264;DHT22;5689;48.798;9.070;2022-10-24T07:46:35;14.40;99.90
11264;DHT22;5689;48.798;9.070;2022-10-24T07:49:03;14.40;99.90
11264;DHT22;5689;48.798;9.070;2022-10-24T07:51:31;14.50;99.90
11264;DHT22;5689;48.798;9.070;2022-10-24T07:53:59;14.60;99.90
11264;DHT22;5689;48.798;9.070;2022-10-24T07:56:29;14.60;99.90
11264;DHT22;5689;48.798;9.070;2022-10-24T07:58:58;14.60;99.90
11264;DHT22;5689;48.798;9.070;2022-10-24T08:01:28;14.70;99.90
11264;DHT22;5689;48.798;9.070;2022-10-24T08:03:57;14.80;99.90
11264;DHT22;5689;48.798;9.070;2022-10-24T08:06:29;14.80;99.90
11264;DHT22;5689;48.798;9.070;2022-10-24T08:08:57;14.80;99.90
11264;DHT22;5689;48.798;9.070;2022-10-24T08:11:27;14.80;99.90
11264;DHT22;5689;48.798;9.070;2022-10-24T08:13:57;14.90;99.90
11264;DHT22;5689;48.798;9.070;2022-10-24T08:16:25;14.90;99.90
11264;DHT22;5689;48.798;9.070;2022-10-24T08:18:55;15.10;99.90
11264;DHT22;5689;48.798;9.070;2022-10-24T08:21:24;15.10;99.90
11264;DHT22;5689;48.798;9.070;2022-10-24T08:23:53;15.20;99.90
11264;DHT22;5689;48.798;9.070;2022-10-24T08:26:22;15.20;99.90
11264;DHT22;5689;48.798;9.070;2022-10-24T08:28:51;15.20;99.90
11264;DHT22;5689;48.798;9.070;2022-10-24T08:31:23;15.30;99.90
11264;DHT22;5689;48.798;9.070;2022-10-24T08:33:52;15.30;99.90
11264;DHT22;5689;48.798;9.070;2022-10-24T08:36:23;15.40;99.90
11264;DHT22;5689;48.798;9.070;2022-10-24T08:38:52;15.40;99.90
11264;DHT22;5689;48.798;9.070;2022-10-24T08:41:26;15.50;99.90
11264;DHT22;5689;48.798;9.070;2022-10-24T08:43:56;15.60;99.90
11264;DHT22;5689;48.798;9.070;2022-10-24T08:46:41;15.60;99.90
11264;DHT22;5689;48.798;9.070;2022-10-24T08:49:20;15.70;99.90
11264;DHT22;5689;48.798;9.070;2022-10-24T08:51:52;15.70;99.90
11264;DHT22;5689;48.798;9.070;2022-10-24T08:54:25;15.80;99.90
11264;DHT22;5689;48.798;9.070;2022-10-24T08:56:55;15.80;99.90
11264;DHT22;5689;48.798;9.070;2022-10-24T08:59:28;15.80;99.90
11264;DHT22;5689;48.798;9.070;2022-10-24T09:02:01;15.90;99.90
11264;DHT22;5689;48.798;9.070;2022-10-24T09:04:38;15.80;99.90
11264;DHT22;5689;48.798;9.070;2022-10-24T09:07:14;15.80;99.90
11264;DHT22;5689;48.798;9.070;2022-10-24T09:09:46;15.90;99.90
11264;DHT22;5689;48.798;9.070;2022-10-24T09:12:17;15.90;99.90
11264;DHT22;5689;48.798;9.070;2022-10-24T09:14:55;16.00;99.90
11264;DHT22;5689;48.798;9.070;2022-10-24T09:17:29;16.00;99.90
11264;DHT22;5689;48.798;9.070;2022-10-24T09:19:59;16.10;99.90
11264;DHT22;5689;48.798;9.070;2022-10-24T09:22:30;16.10;99.90
11264;DHT22;5689;48.798;9.070;2022-10-24T09:25:02;16.10;99.90
11264;DHT22;5689;48.798;9.070;2022-10-24T09:27:33;16.10;99.90
11264;DHT22;5689;48.798;9.070;2022-10-24T09:30:02;16.20;99.90
11264;DHT22;5689;48.798;9.070;2022-10-24T09:32:34;16.20;99.90
11264;DHT22;5689;48.798;9.070;2022-10-24T09:35:06;16.30;99.90
11264;DHT22;5689;48.798;9.070;2022-10-24T09:37:39;16.30;99.90
11264;DHT22;5689;48.798;9.070;2022-10-24T09:40:20;16.20;99.90
11264;DHT22;5689;48.798;9.070;2022-10-24T09:42:55;16.20;99.90
11264;DHT22;5689;48.798;9.070;2022-10-24T09:45:44;16.20;99.90
11264;DHT22;5689;48.798;9.070;2022-10-24T09:48:19;16.20;99.90
11264;DHT22;5689;48.798;9.070;2022-10-24T09:50:50;16.10;99.90
11264;DHT22;5689;48.798;9.070;2022-10-24T09:53:24;16.00;99.90
11264;DHT22;5689;48.798;9.070;2022-10-24T09:55:57;16.10;99.90
11264;DHT22;5689;48.798;9.070;2022-10-24T09:58:27;16.00;99.90
11264;DHT22;5689;48.798;9.070;2022-10-24T10:01:01;16.10;99.90
11264;DHT22;5689;48.798;9.070;2022-10-24T10:03:32;16.20;99.90
11264;DHT22;5689;48.798;9.070;2022-10-24T10:06:02;16.20;99.90
11264;DHT22;5689;48.798;9.070;2022-10-24T10:08:33;16.40;99.90
11264;DHT22;5689;48.798;9.070;2022-10-24T10:11:04;16.40;99.90
11264;DHT22;5689;48.798;9.070;2022-10-24T10:13:35;16.40;99.90
11264;DHT22;5689;48.798;9.070;2022-10-24T10:16:21;16.50;99.90
11264;DHT22;5689;48.798;9.070;2022-10-24T10:19:01;16.60;99.90
11264;DHT22;5689;48.798;9.070;2022-10-24T10:21:51;16.70;99.90
11264;DHT22;5689;48.798;9.070;2022-10-24T10:24:24;16.70;99.90
11264;DHT22;5689;48.798;9.070;2022-10-24T10:26:53;16.70;99.90
11264;DHT22;5689;48.798;9.070;2022-10-24T10:29:22;16.70;99.90
11264;DHT22;5689;48.798;9.070;2022-10-24T10:31:56;16.70;99.90
11264;DHT22;5689;48.798;9.070;2022-10-24T10:34:32;16.90;99.90
11264;DHT22;5689;48.798;9.070;2022-10-24T10:37:19;16.90;99.90
11264;DHT22;5689;48.798;9.070;2022-10-24T10:40:06;16.90;99.90
11264;DHT22;5689;48.798;9.070;2022-10-24T10:42:41;16.90;99.90
11264;DHT22;5689;48.798;9.070;2022-10-24T10:45:15;16.90;99.90
11264;DHT22;5689;48.798;9.070;2022-10-24T10:47:53;16.90;99.90
11264;DHT22;5689;48.798;9.070;2022-10-24T10:50:29;16.90;99.90
11264;DHT22;5689;48.798;9.070;2022-10-24T10:53:07;16.90;99.90
11264;DHT22;5689;48.798;9.070;2022-10-24T10:55:44;16.90;99.90
11264;DHT22;5689;48.798;9.070;2022-10-24T10:58:22;16.90;99.90
11264;DHT22;5689;48.798;9.070;2022-10-24T11:01:01;16.80;99.90
11264;DHT22;5689;48.798;9.070;2022-10-24T11:03:36;16.80;99.90
11264;DHT22;5689;48.798;9.070;2022-10-24T11:06:17;16.80;99.90
11264;DHT22;5689;48.798;9.070;2022-10-24T11:09:07;16.90;99.90
11264;DHT22;5689;48.798;9.070;2022-10-24T11:11:41;16.80;99.90
11264;DHT22;5689;48.798;9.070;2022-10-24T11:14:21;16.80;99.90
11264;DHT22;5689;48.798;9.070;2022-10-24T11:16:56;16.80;99.90
11264;DHT22;5689;48.798;9.070;2022-10-24T11:19:27;16.90;99.90
11264;DHT22;5689;48.798;9.070;2022-10-24T11:22:02;17.00;99.90
11264;DHT22;5689;48.798;9.070;2022-10-24T11:24:38;17.00;99.90
11264;DHT22;5689;48.798;9.070;2022-10-24T11:27:09;16.90;99.90
11264;DHT22;5689;48.798;9.070;2022-10-24T11:29:44;17.00;99.90
11264;DHT22;5689;48.798;9.070;2022-10-24T11:32:19;16.90;99.90
11264;DHT22;5689;48.798;9.070;2022-10-24T11:34:53;17.00;99.90
11264;DHT22;5689;48.798;9.070;2022-10-24T11:37:27;17.00;99.90
11264;DHT22;5689;48.798;9.070;2022-10-24T11:40:01;17.00;99.90
11264;DHT22;5689;48.798;9.070;2022-10-24T11:42:35;17.00;99.90
11264;DHT22;5689;48.798;9.070;2022-10-24T11:45:06;17.10;99.90
11264;DHT22;5689;48.798;9.070;2022-10-24T11:47:49;17.20;99.90
11264;DHT22;5689;48.798;9.070;2022-10-24T11:50:25;17.20;99.90
11264;DHT22;5689;48.798;9.070;2022-10-24T11:52:58;17.30;99.90
11264;DHT22;5689;48.798;9.070;2022-10-24T11:55:31;17.30;99.90
11264;DHT22;5689;48.798;9.070;2022-10-24T11:58:09;17.30;99.90
11264;DHT22;5689;48.798;9.070;2022-10-24T12:01:02;17.30;99.90
11264;DHT22;5689;48.798;9.070;2022-10-24T12:03:56;17.20;99.90
11264;DHT22;5689;48.798;9.070;2022-10-24T12:06:54;17.30;99.90
11264;DHT22;5689;48.798;9.070;2022-10-24T12:09:47;17.30;99.90
11264;DHT22;5689;48.798;9.070;2022-10-24T12:12:31;17.30;99.90
11264;DHT22;5689;48.798;9.070;2022-10-24T12:15:14;17.40;99.90
11264;DHT22;5689;48.798;9.070;2022-10-24T12:18:00;17.30;99.90
11264;DHT22;5689;48.798;9.070;2022-10-24T12:20:31;17.30;99.90
11264;DHT22;5689;48.798;9.070;2022-10-24T12:23:00;17.20;99.90
11264;DHT22;5689;48.798;9.070;2022-10-24T12:25:31;17.20;99.90
11264;DHT22;5689;48.798;9.070;2022-10-24T12:28:02;17.30;99.90
11264;DHT22;5689;48.798;9.070;2022-10-24T12:30:33;17.30;99.90
11264;DHT22;5689;48.798;9.070;2022-10-24T12:33:10;17.30;99.90
11264;DHT22;5689;48.798;9.070;2022-10-24T12:35:56;17.30;99.90
11264;DHT22;5689;48.798;9.070;2022-10-24T12:41:41;17.20;99.90
11264;DHT22;5689;48.798;9.070;2022-10-24T12:44:40;17.30;99.90
11264;DHT22;5689;48.798;9.070;2022-10-24T12:47:30;17.30;99.90
11264;DHT22;5689;48.798;9.070;2022-10-24T12:53:18;17.40;99.90
11264;DHT22;5689;48.798;9.070;2022-10-24T12:56:06;17.60;99.90
11264;DHT22;5689;48.798;9.070;2022-10-24T12:58:36;17.90;99.90
11264;DHT22;5689;48.798;9.070;2022-10-24T13:01:08;17.90;99.90
11264;DHT22;5689;48.798;9.070;2022-10-24T13:04:22;18.10;99.90
11264;DHT22;5689;48.798;9.070;2022-10-24T13:07:16;18.00;99.90
11264;DHT22;5689;48.798;9.070;2022-10-24T13:09:54;18.10;99.90
11264;DHT22;5689;48.798;9.070;2022-10-24T13:12:42;17.90;99.90
11264;DHT22;5689;48.798;9.070;2022-10-24T13:15:23;17.90;99.90
11264;DHT22;5689;48.798;9.070;2022-10-24T13:18:03;17.90;99.90
11264;DHT22;5689;48.798;9.070;2022-10-24T13:20:36;17.90;99.90
11264;DHT22;5689;48.798;9.070;2022-10-24T13:23:13;17.90;99.90
11264;DHT22;5689;48.798;9.070;2022-10-24T13:25:42;17.80;99.90
11264;DHT22;5689;48.798;9.070;2022-10-24T13:28:38;17.90;99.90
11264;DHT22;5689;48.798;9.070;2022-10-24T13:31:39;18.20;99.90
11264;DHT22;5689;48.798;9.070;2022-10-24T13:34:26;18.30;99.90
11264;DHT22;5689;48.798;9.070;2022-10-24T13:37:02;18.20;99.90
11264;DHT22;5689;48.798;9.070;2022-10-24T13:39:34;18.30;99.90
11264;DHT22;5689;48.798;9.070;2022-10-24T13:42:05;18.30;99.90
11264;DHT22;5689;48.798;9.070;2022-10-24T13:44:41;18.20;99.90
11264;DHT22;5689;48.798;9.070;2022-10-24T13:47:18;18.00;99.90
11264;DHT22;5689;48.798;9.070;2022-10-24T13:49:52;18.00;99.90
11264;DHT22;5689;48.798;9.070;2022-10-24T13:52:25;17.90;99.90
11264;DHT22;5689;48.798;9.070;2022-10-24T13:54:57;17.90;99.90
11264;DHT22;5689;48.798;9.070;2022-10-24T13:57:29;18.00;99.90
11264;DHT22;5689;48.798;9.070;2022-10-24T14:00:00;18.00;99.90
11264;DHT22;5689;48.798;9.070;2022-10-24T14:02:39;18.10;99.90
11264;DHT22;5689;48.798;9.070;2022-10-24T14:05:18;18.00;99.90
11264;DHT22;5689;48.798;9.070;2022-10-24T14:07:47;17.90;99.90
11264;DHT22;5689;48.798;9.070;2022-10-24T14:10:16;17.90;99.90
11264;DHT22;5689;48.798;9.070;2022-10-24T14:12:45;18.00;99.90
11264;DHT22;5689;48.798;9.070;2022-10-24T14:15:20;17.80;99.90
11264;DHT22;5689;48.798;9.070;2022-10-24T14:17:56;17.80;99.90
11264;DHT22;5689;48.798;9.070;2022-10-24T14:20:26;17.90;99.90
11264;DHT22;5689;48.798;9.070;2022-10-24T14:22:54;17.90;99.90
11264;DHT22;5689;48.798;9.070;2022-10-24T14:25:26;17.90;99.90
11264;DHT22;5689;48.798;9.070;2022-10-24T14:27:57;17.70;99.90
11264;DHT22;5689;48.798;9.070;2022-10-24T14:30:27;17.80;99.90
11264;DHT22;5689;48.798;9.070;2022-10-24T14:33:06;17.80;99.90
11264;DHT22;5689;48.798;9.070;2022-10-24T14:35:35;17.70;99.90
11264;DHT22;5689;48.798;9.070;2022-10-24T14:38:04;17.90;99.90
11264;DHT22;5689;48.798;9.070;2022-10-24T14:40:34;18.20;99.90
11264;DHT22;5689;48.798;9.070;2022-10-24T14:43:03;18.40;99.90
11264;DHT22;5689;48.798;9.070;2022-10-24T14:45:31;19.50;99.90
11264;DHT22;5689;48.798;9.070;2022-10-24T14:47:59;20.60;99.90
11264;DHT22;5689;48.798;9.070;2022-10-24T14:50:37;21.50;99.90
11264;DHT22;5689;48.798;9.070;2022-10-24T14:53:19;21.30;99.90
11264;DHT22;5689;48.798;9.070;2022-10-24T14:55:50;21.10;99.90
11264;DHT22;5689;48.798;9.070;2022-10-24T14:58:23;21.60;99.90
11264;DHT22;5689;48.798;9.070;2022-10-24T15:00:53;20.40;99.90
11264;DHT22;5689;48.798;9.070;2022-10-24T15:03:23;20.00;99.90
11264;DHT22;5689;48.798;9.070;2022-10-24T15:05:57;20.00;99.90
11264;DHT22;5689;48.798;9.070;2022-10-24T15:08:35;19.80;99.90
11264;DHT22;5689;48.798;9.070;2022-10-24T15:11:15;19.70;99.90
11264;DHT22;5689;48.798;9.070;2022-10-24T15:13:46;19.70;99.90
11264;DHT22;5689;48.798;9.070;2022-10-24T15:16:25;19.70;99.90
11264;DHT22;5689;48.798;9.070;2022-10-24T15:18:55;19.80;99.90
11264;DHT22;5689;48.798;9.070;2022-10-24T15:21:29;19.00;99.90
11264;DHT22;5689;48.798;9.070;2022-10-24T15:23:59;18.80;99.90
11264;DHT22;5689;48.798;9.070;2022-10-24T15:26:31;18.60;99.90
11264;DHT22;5689;48.798;9.070;2022-10-24T15:29:06;18.60;99.90
11264;DHT22;5689;48.798;9.070;2022-10-24T15:31:37;18.20;99.90
11264;DHT22;5689;48.798;9.070;2022-10-24T15:34:06;17.90;99.90
11264;DHT22;5689;48.798;9.070;2022-10-24T15:36:39;17.60;99.90
11264;DHT22;5689;48.798;9.070;2022-10-24T15:39:12;17.30;99.90
11264;DHT22;5689;48.798;9.070;2022-10-24T15:41:41;17.10;99.90
11264;DHT22;5689;48.798;9.070;2022-10-24T15:44:14;17.10;99.90
11264;DHT22;5689;48.798;9.070;2022-10-24T15:46:43;17.00;99.90
11264;DHT22;5689;48.798;9.070;2022-10-24T15:49:12;16.90;99.90
11264;DHT22;5689;48.798;9.070;2022-10-24T15:51:43;16.80;99.90
11264;DHT22;5689;48.798;9.070;2022-10-24T15:54:12;16.80;99.90
11264;DHT22;5689;48.798;9.070;2022-10-24T15:56:40;16.80;99.90
11264;DHT22;5689;48.798;9.070;2022-10-24T15:59:08;16.70;99.90
11264;DHT22;5689;48.798;9.070;2022-10-24T16:01:38;16.60;99.90
11264;DHT22;5689;48.798;9.070;2022-10-24T16:04:08;16.60;99.90
11264;DHT22;5689;48.798;9.070;2022-10-24T16:06:37;16.50;99.90
11264;DHT22;5689;48.798;9.070;2022-10-24T16:09:12;16.60;99.90
11264;DHT22;5689;48.798;9.070;2022-10-24T16:11:41;16.60;99.90
11264;DHT22;5689;48.798;9.070;2022-10-24T16:14:11;16.60;99.90
11264;DHT22;5689;48.798;9.070;2022-10-24T16:16:40;16.40;99.90
11264;DHT22;5689;48.798;9.070;2022-10-24T16:19:08;16.10;99.90
11264;DHT22;5689;48.798;9.070;2022-10-24T16:21:38;15.80;99.90
11264;DHT22;5689;48.798;9.070;2022-10-24T16:24:09;15.60;99.90
11264;DHT22;5689;48.798;9.070;2022-10-24T16:26:38;15.50;99.90